createdAt,value
2017-08-16T00:00:44.967Z,13.76
2017-08-16T00:01:55.240Z,13.78
2017-08-16T00:03:05.510Z,13.71
2017-08-16T00:04:15.470Z,13.75
2017-08-16T00:05:25.427Z,13.64
2017-08-16T00:06:35.697Z,13.65
2017-08-16T00:07:45.968Z,13.71
2017-08-16T00:08:56.237Z,13.76
2017-08-16T00:10:06.202Z,13.62
2017-08-16T00:11:16.155Z,13.65
2017-08-16T00:12:26.112Z,13.71
2017-08-16T00:13:36.382Z,13.58
2017-08-16T00:14:46.338Z,13.6
2017-08-16T00:15:56.606Z,13.67
2017-08-16T00:17:06.565Z,13.62
2017-08-16T00:18:16.837Z,13.62
2017-08-16T00:19:26.793Z,13.62
2017-08-16T00:20:36.431Z,13.65
2017-08-16T00:21:46.726Z,13.62
2017-08-16T00:22:57.000Z,13.65
2017-08-16T00:24:06.962Z,13.67
2017-08-16T00:25:17.234Z,13.62
2017-08-16T00:26:27.191Z,13.68
2017-08-16T00:27:37.150Z,13.67
2017-08-16T00:28:47.423Z,13.67
2017-08-16T00:29:57.697Z,13.62
2017-08-16T00:31:07.967Z,13.62
2017-08-16T00:32:18.238Z,13.65
2017-08-16T00:33:28.530Z,13.76
2017-08-16T00:34:38.801Z,13.71
2017-08-16T00:35:49.077Z,13.64
2017-08-16T00:36:59.033Z,13.67
2017-08-16T00:38:08.998Z,13.68
2017-08-16T00:39:19.275Z,13.65
2017-08-16T00:40:29.548Z,13.71
2017-08-16T00:41:42.402Z,13.62
2017-08-16T00:42:52.360Z,13.65
2017-08-16T00:44:02.632Z,13.67
2017-08-16T00:45:12.594Z,13.64
2017-08-16T00:46:22.867Z,13.7
2017-08-16T00:47:33.136Z,13.61
2017-08-16T00:48:42.779Z,13.61
2017-08-16T00:49:53.053Z,13.64
2017-08-16T00:51:03.335Z,13.67
2017-08-16T00:52:13.612Z,13.67
2017-08-16T00:53:23.884Z,13.65
2017-08-16T00:54:33.840Z,13.67
2017-08-16T00:55:44.113Z,13.62
2017-08-16T00:56:54.384Z,13.68
2017-08-16T00:58:04.342Z,13.75
2017-08-16T00:59:14.615Z,13.64
2017-08-16T01:00:24.899Z,13.7
2017-08-16T01:01:35.169Z,13.68
2017-08-16T01:02:45.123Z,13.68
2017-08-16T01:03:55.399Z,13.68
2017-08-16T01:05:05.677Z,13.75
2017-08-16T01:06:15.952Z,13.65
2017-08-16T01:07:25.910Z,13.68
2017-08-16T01:08:36.181Z,13.65
2017-08-16T01:09:45.826Z,13.67
2017-08-16T01:10:56.097Z,13.67
2017-08-16T01:12:06.371Z,13.67
2017-08-16T01:13:16.644Z,13.73
2017-08-16T01:14:26.609Z,13.67
2017-08-16T01:15:36.571Z,13.64
2017-08-16T01:16:46.847Z,13.65
2017-08-16T01:17:57.117Z,13.65
2017-08-16T01:19:07.076Z,13.64
2017-08-16T01:20:17.348Z,13.71
2017-08-16T01:21:27.305Z,13.62
2017-08-16T01:22:37.577Z,13.73
2017-08-16T01:23:47.220Z,13.7
2017-08-16T01:24:57.491Z,13.76
2017-08-16T01:26:07.141Z,13.7
2017-08-16T01:27:17.413Z,13.71
2017-08-16T01:28:27.686Z,13.61
2017-08-16T01:29:37.957Z,13.76
2017-08-16T01:30:47.286Z,13.62
2017-08-16T01:31:57.569Z,13.76
2017-08-16T01:33:07.531Z,13.78
2017-08-16T01:34:17.487Z,13.78
2017-08-16T01:35:27.445Z,13.7
2017-08-16T01:36:37.404Z,13.71
2017-08-16T01:37:47.381Z,13.78
2017-08-16T01:38:57.658Z,13.78
2017-08-16T01:40:07.955Z,13.71
2017-08-16T01:41:17.598Z,13.79
2017-08-16T01:42:27.258Z,13.8
2017-08-16T01:43:37.220Z,13.82
2017-08-16T01:44:47.178Z,13.8
2017-08-16T01:45:57.450Z,13.82
2017-08-16T01:47:07.411Z,13.83
2017-08-16T01:48:17.682Z,13.73
2017-08-16T01:49:27.954Z,13.76
2017-08-16T01:50:37.596Z,13.82
2017-08-16T01:51:47.550Z,13.83
2017-08-16T01:52:57.827Z,13.76
2017-08-16T01:54:08.128Z,13.78
2017-08-16T01:55:18.404Z,13.86
2017-08-16T01:56:28.675Z,13.85
2017-08-16T01:57:38.957Z,13.8
2017-08-16T01:58:49.231Z,13.93
2017-08-16T01:59:59.190Z,13.89
2017-08-16T02:01:09.471Z,13.93
2017-08-16T02:02:19.744Z,13.78
2017-08-16T02:03:29.701Z,13.86
2017-08-16T02:04:39.343Z,13.78
2017-08-16T02:05:49.621Z,13.89
2017-08-16T02:06:59.576Z,13.79
2017-08-16T02:08:09.538Z,13.79
2017-08-16T02:09:19.811Z,13.76
2017-08-16T02:10:30.083Z,13.86
2017-08-16T02:11:39.724Z,13.87
2017-08-16T02:12:49.693Z,13.83
2017-08-16T02:13:59.961Z,13.87
2017-08-16T02:15:09.631Z,13.85
2017-08-16T02:16:19.593Z,13.75
2017-08-16T02:17:29.237Z,13.73
2017-08-16T02:18:39.512Z,13.73
2017-08-16T02:19:49.790Z,13.78
2017-08-16T02:20:59.750Z,13.7
2017-08-16T02:22:09.418Z,13.76
2017-08-16T02:23:19.688Z,13.78
2017-08-16T02:24:29.958Z,13.73
2017-08-16T02:25:40.231Z,13.76
2017-08-16T02:26:50.519Z,13.73
2017-08-16T02:28:00.163Z,13.8
2017-08-16T02:29:10.434Z,13.76
2017-08-16T02:30:20.713Z,13.68
2017-08-16T02:31:30.673Z,13.79
2017-08-16T02:32:40.953Z,13.7
2017-08-16T02:33:51.232Z,13.67
2017-08-16T02:35:01.197Z,13.76
2017-08-16T02:36:11.480Z,13.82
2017-08-16T02:37:21.758Z,13.8
2017-08-16T02:38:31.716Z,13.85
2017-08-16T02:39:42.001Z,13.75
2017-08-16T02:40:52.274Z,13.79
2017-08-16T02:42:02.255Z,13.8
2017-08-16T02:43:12.219Z,13.79
2017-08-16T02:44:22.494Z,13.82
2017-08-16T02:45:32.772Z,13.8
2017-08-16T02:46:42.417Z,13.85
2017-08-16T02:47:52.691Z,13.91
2017-08-16T02:49:02.967Z,13.79
2017-08-16T02:50:13.238Z,13.87
2017-08-16T02:51:23.201Z,13.94
2017-08-16T02:52:32.845Z,13.83
2017-08-16T02:53:42.803Z,13.82
2017-08-16T02:54:53.077Z,13.86
2017-08-16T02:56:03.356Z,13.8
2017-08-16T02:57:13.628Z,13.79
2017-08-16T02:58:23.899Z,13.85
2017-08-16T02:59:34.178Z,13.79
2017-08-16T03:00:43.511Z,13.79
2017-08-16T03:01:53.788Z,13.82
2017-08-16T03:03:03.437Z,13.79
2017-08-16T03:04:13.711Z,13.79
2017-08-16T03:05:23.674Z,13.79
2017-08-16T03:06:33.631Z,13.82
2017-08-16T03:07:43.903Z,13.8
2017-08-16T03:08:54.174Z,13.83
2017-08-16T03:10:03.820Z,13.78
2017-08-16T03:11:14.093Z,13.79
2017-08-16T03:12:24.370Z,13.8
2017-08-16T03:13:34.331Z,13.83
2017-08-16T03:14:44.603Z,13.85
2017-08-16T03:15:54.559Z,13.86
2017-08-16T03:17:04.521Z,13.83
2017-08-16T03:18:14.477Z,13.91
2017-08-16T03:19:24.747Z,13.93
2017-08-16T03:20:34.715Z,13.83
2017-08-16T03:21:44.683Z,13.87
2017-08-16T03:22:54.957Z,13.83
2017-08-16T03:24:04.604Z,13.86
2017-08-16T03:25:14.878Z,13.8
2017-08-16T03:26:25.150Z,13.97
2017-08-16T03:27:35.424Z,13.85
2017-08-16T03:28:45.383Z,13.93
2017-08-16T03:29:55.340Z,13.89
2017-08-16T03:31:05.308Z,13.98
2017-08-16T03:32:15.267Z,13.87
2017-08-16T03:33:25.224Z,13.86
2017-08-16T03:34:35.495Z,13.85
2017-08-16T03:35:45.452Z,13.89
2017-08-16T03:36:55.727Z,13.86
2017-08-16T03:38:06.004Z,13.86
2017-08-16T03:39:15.959Z,13.79
2017-08-16T03:40:25.920Z,13.87
2017-08-16T03:41:36.197Z,13.86
2017-08-16T03:42:46.470Z,13.82
2017-08-16T03:43:56.741Z,13.79
2017-08-16T03:45:06.703Z,13.83
2017-08-16T03:46:16.976Z,13.89
2017-08-16T03:47:27.258Z,13.8
2017-08-16T03:48:37.580Z,13.79
2017-08-16T03:49:47.851Z,13.85
2017-08-16T03:50:58.122Z,13.87
2017-08-16T03:52:08.394Z,13.85
2017-08-16T03:53:18.665Z,13.83
2017-08-16T03:54:28.966Z,13.85
2017-08-16T03:55:38.930Z,13.97
2017-08-16T03:56:49.201Z,13.85
2017-08-16T03:57:59.158Z,13.82
2017-08-16T03:59:09.437Z,13.86
2017-08-16T04:00:19.393Z,13.86
2017-08-16T04:01:29.664Z,13.93
2017-08-16T04:02:39.957Z,13.83
2017-08-16T04:03:49.913Z,13.85
2017-08-16T04:05:00.186Z,13.94
2017-08-16T04:06:10.457Z,13.91
2017-08-16T04:07:20.419Z,13.82
2017-08-16T04:08:30.696Z,13.87
2017-08-16T04:09:40.967Z,13.86
2017-08-16T04:10:51.245Z,13.91
2017-08-16T04:12:01.206Z,13.85
2017-08-16T04:13:10.856Z,13.86
2017-08-16T04:14:21.127Z,13.85
2017-08-16T04:15:31.401Z,13.87
2017-08-16T04:16:41.682Z,13.94
2017-08-16T04:17:51.637Z,13.86
2017-08-16T04:19:01.280Z,13.85
2017-08-16T04:20:11.551Z,13.83
2017-08-16T04:21:21.845Z,13.82
2017-08-16T04:22:31.803Z,13.8
2017-08-16T04:23:42.085Z,13.82
2017-08-16T04:24:52.360Z,13.83
2017-08-16T04:26:02.322Z,13.95
2017-08-16T04:27:12.278Z,13.8
2017-08-16T04:28:22.548Z,13.8
2017-08-16T04:29:32.832Z,13.8
2017-08-16T04:30:42.791Z,13.79
2017-08-16T04:31:53.061Z,13.82
2017-08-16T04:33:03.351Z,13.86
2017-08-16T04:34:13.623Z,13.79
2017-08-16T04:35:23.580Z,13.85
2017-08-16T04:36:33.535Z,13.82
2017-08-16T04:37:43.497Z,13.89
2017-08-16T04:38:53.766Z,13.82
2017-08-16T04:40:04.039Z,13.83
2017-08-16T04:41:13.685Z,13.73
2017-08-16T04:42:23.641Z,13.83
2017-08-16T04:43:33.914Z,13.7
2017-08-16T04:44:44.255Z,13.71
2017-08-16T04:45:54.211Z,13.73
2017-08-16T04:47:04.484Z,13.71
2017-08-16T04:48:14.754Z,13.76
2017-08-16T04:49:24.710Z,13.78
2017-08-16T04:50:34.669Z,13.82
2017-08-16T04:51:44.942Z,13.75
2017-08-16T04:52:54.584Z,13.73
2017-08-16T04:54:04.862Z,13.76
2017-08-16T04:55:15.140Z,13.71
2017-08-16T04:56:25.416Z,13.79
2017-08-16T04:57:34.745Z,13.79
2017-08-16T04:58:44.390Z,13.82
2017-08-16T04:59:54.662Z,13.85
2017-08-16T05:01:04.629Z,13.8
2017-08-16T05:02:14.902Z,13.73
2017-08-16T05:03:24.866Z,13.75
2017-08-16T05:04:34.510Z,13.82
2017-08-16T05:05:44.790Z,13.76
2017-08-16T05:06:54.743Z,13.93
2017-08-16T05:08:04.726Z,13.76
2017-08-16T05:09:14.999Z,13.76
2017-08-16T05:10:25.269Z,13.86
2017-08-16T05:11:35.538Z,13.85
2017-08-16T05:12:45.808Z,13.86
2017-08-16T05:13:55.769Z,13.93
2017-08-16T05:15:05.739Z,14
2017-08-16T05:16:16.282Z,13.95
2017-08-16T05:17:26.239Z,14.03
2017-08-16T05:18:36.197Z,14.04
2017-08-16T05:19:46.473Z,14.11
2017-08-16T05:20:56.742Z,14.16
2017-08-16T05:22:06.721Z,14.08
2017-08-16T05:23:16.992Z,14.15
2017-08-16T05:24:27.267Z,14.19
2017-08-16T05:25:37.222Z,14.15
2017-08-16T05:26:47.181Z,14.16
2017-08-16T05:27:57.140Z,14.19
2017-08-16T05:29:07.421Z,14.13
2017-08-16T05:30:17.689Z,14.22
2017-08-16T05:31:27.643Z,14.22
2017-08-16T05:32:37.283Z,14.28
2017-08-16T05:33:47.237Z,14.3
2017-08-16T05:34:57.506Z,14.23
2017-08-16T05:36:07.156Z,14.34
2017-08-16T05:37:17.116Z,14.36
2017-08-16T05:38:27.078Z,14.26
2017-08-16T05:39:37.042Z,14.36
2017-08-16T05:40:47.320Z,14.37
2017-08-16T05:41:57.275Z,14.4
2017-08-16T05:43:07.232Z,14.31
2017-08-16T05:44:17.505Z,14.33
2017-08-16T05:45:27.149Z,14.34
2017-08-16T05:46:37.110Z,14.4
2017-08-16T05:47:47.074Z,14.34
2017-08-16T05:48:57.346Z,14.51
2017-08-16T05:50:07.304Z,14.48
2017-08-16T05:51:16.656Z,14.38
2017-08-16T05:52:26.941Z,14.49
2017-08-16T05:53:37.217Z,14.44
2017-08-16T05:54:47.174Z,14.49
2017-08-16T05:55:57.446Z,14.55
2017-08-16T05:57:07.445Z,14.53
2017-08-16T05:58:17.405Z,14.62
2017-08-16T05:59:27.682Z,14.56
2017-08-16T06:00:37.957Z,14.62
2017-08-16T06:01:48.242Z,14.59
2017-08-16T06:02:58.518Z,14.56
2017-08-16T06:04:08.805Z,14.51
2017-08-16T06:05:19.088Z,14.68
2017-08-16T06:06:29.360Z,14.66
2017-08-16T06:07:39.630Z,14.61
2017-08-16T06:08:49.589Z,14.74
2017-08-16T06:09:59.858Z,14.71
2017-08-16T06:11:10.136Z,14.74
2017-08-16T06:12:20.098Z,14.7
2017-08-16T06:13:30.374Z,14.74
2017-08-16T06:14:40.648Z,14.73
2017-08-16T06:15:50.611Z,14.7
2017-08-16T06:17:00.888Z,14.79
2017-08-16T06:18:11.161Z,14.79
2017-08-16T06:19:20.804Z,14.89
2017-08-16T06:20:30.760Z,14.9
2017-08-16T06:21:41.029Z,14.85
2017-08-16T06:22:50.989Z,14.93
2017-08-16T06:24:00.951Z,14.89
2017-08-16T06:25:10.911Z,14.89
2017-08-16T06:26:20.870Z,14.87
2017-08-16T06:27:30.514Z,14.92
2017-08-16T06:28:40.790Z,14.97
2017-08-16T06:29:51.069Z,15.05
2017-08-16T06:31:01.063Z,15.11
2017-08-16T06:32:10.712Z,15.18
2017-08-16T06:33:20.996Z,15.22
2017-08-16T06:34:30.960Z,15.35
2017-08-16T06:35:41.242Z,15.3
2017-08-16T06:36:51.517Z,15.37
2017-08-16T06:38:01.798Z,15.52
2017-08-16T06:39:11.759Z,15.62
2017-08-16T06:40:22.030Z,15.6
2017-08-16T06:41:31.995Z,15.65
2017-08-16T06:42:42.288Z,15.75
2017-08-16T06:43:52.563Z,15.81
2017-08-16T06:45:02.835Z,15.9
2017-08-16T06:46:13.117Z,15.96
2017-08-16T06:47:23.395Z,16.09
2017-08-16T06:48:33.674Z,16.21
2017-08-16T06:49:43.319Z,16.24
2017-08-16T06:50:53.591Z,16.37
2017-08-16T06:52:03.548Z,16.41
2017-08-16T06:53:13.196Z,16.46
2017-08-16T06:54:23.482Z,16.37
2017-08-16T06:55:33.758Z,16.44
2017-08-16T06:56:44.028Z,16.37
2017-08-16T06:57:54.307Z,16.37
2017-08-16T06:59:03.956Z,16.41
2017-08-16T07:00:13.914Z,16.32
2017-08-16T07:01:24.192Z,16.32
2017-08-16T07:02:33.840Z,16.34
2017-08-16T07:03:43.804Z,16.21
2017-08-16T07:04:54.112Z,16.31
2017-08-16T07:06:04.388Z,16.32
2017-08-16T07:07:14.664Z,16.31
2017-08-16T07:08:24.960Z,16.32
2017-08-16T07:09:34.610Z,16.29
2017-08-16T07:10:44.903Z,16.24
2017-08-16T07:11:54.858Z,16.16
2017-08-16T07:13:05.135Z,16.16
2017-08-16T07:14:15.410Z,16.13
2017-08-16T07:15:25.684Z,16.08
2017-08-16T07:16:35.329Z,15.96
2017-08-16T07:17:45.604Z,15.99
2017-08-16T07:18:55.876Z,15.88
2017-08-16T07:20:05.838Z,15.87
2017-08-16T07:21:15.798Z,15.92
2017-08-16T07:22:25.762Z,15.9
2017-08-16T07:23:36.045Z,15.87
2017-08-16T07:24:46.471Z,15.85
2017-08-16T07:25:56.746Z,16
2017-08-16T07:27:07.026Z,15.96
2017-08-16T07:28:17.301Z,16.1
2017-08-16T07:29:27.573Z,16.1
2017-08-16T07:30:40.002Z,16.05
2017-08-16T07:31:50.276Z,16.21
2017-08-16T07:33:00.554Z,16.21
2017-08-16T07:34:10.514Z,16.26
2017-08-16T07:35:20.784Z,16.32
2017-08-16T07:36:30.741Z,16.36
2017-08-16T07:37:41.138Z,16.5
2017-08-16T07:38:51.103Z,16.46
2017-08-16T07:40:01.385Z,16.47
2017-08-16T07:41:11.032Z,16.44
2017-08-16T07:42:21.322Z,16.61
2017-08-16T07:43:31.285Z,16.51
2017-08-16T07:44:41.245Z,16.57
2017-08-16T07:45:51.212Z,16.55
2017-08-16T07:47:01.488Z,16.51
2017-08-16T07:48:11.449Z,16.58
2017-08-16T07:49:21.094Z,16.58
2017-08-16T07:50:30.767Z,16.61
2017-08-16T07:51:41.043Z,16.65
2017-08-16T07:52:51.325Z,16.62
2017-08-16T07:54:01.016Z,16.66
2017-08-16T07:55:10.978Z,16.69
2017-08-16T07:56:21.259Z,16.69
2017-08-16T07:57:31.215Z,16.8
2017-08-16T07:58:41.178Z,16.73
2017-08-16T07:59:50.821Z,16.69
2017-08-16T08:01:01.092Z,16.77
2017-08-16T08:02:11.370Z,16.76
2017-08-16T08:03:21.016Z,16.79
2017-08-16T08:04:31.290Z,16.77
2017-08-16T08:05:41.301Z,16.74
2017-08-16T08:06:51.316Z,16.86
2017-08-16T08:08:01.624Z,16.89
2017-08-16T08:09:11.894Z,16.91
2017-08-16T08:10:21.221Z,16.95
2017-08-16T08:11:30.890Z,16.99
2017-08-16T08:12:41.163Z,17.01
2017-08-16T08:13:51.133Z,17.07
2017-08-16T08:15:01.410Z,17.12
2017-08-16T08:16:10.745Z,17.12
2017-08-16T08:17:20.710Z,17.12
2017-08-16T08:18:30.988Z,17.19
2017-08-16T08:19:40.947Z,17.22
2017-08-16T08:20:51.222Z,17.23
2017-08-16T08:22:01.178Z,17.27
2017-08-16T08:23:11.453Z,17.22
2017-08-16T08:24:21.726Z,17.22
2017-08-16T08:25:32.004Z,17.16
2017-08-16T08:26:41.973Z,17.1
2017-08-16T08:27:51.938Z,17.05
2017-08-16T08:29:02.213Z,17.02
2017-08-16T08:30:11.854Z,16.99
2017-08-16T08:31:22.124Z,17.07
2017-08-16T08:32:32.404Z,17.05
2017-08-16T08:33:42.691Z,17.09
2017-08-16T08:34:52.962Z,17.16
2017-08-16T08:36:02.919Z,17.12
2017-08-16T08:37:12.884Z,17.12
2017-08-16T08:38:22.840Z,17.05
2017-08-16T08:39:33.112Z,17.28
2017-08-16T08:40:43.386Z,17.23
2017-08-16T08:41:53.670Z,17.32
2017-08-16T08:43:03.644Z,17.37
2017-08-16T08:44:13.604Z,17.39
2017-08-16T08:45:23.563Z,17.39
2017-08-16T08:46:33.204Z,17.35
2017-08-16T08:47:43.477Z,17.42
2017-08-16T08:48:53.753Z,17.52
2017-08-16T08:50:03.712Z,17.41
2017-08-16T08:51:13.986Z,17.38
2017-08-16T08:52:23.956Z,17.44
2017-08-16T08:53:33.914Z,17.46
2017-08-16T08:54:43.560Z,17.41
2017-08-16T08:55:53.845Z,17.38
2017-08-16T08:57:04.123Z,17.46
2017-08-16T08:58:14.410Z,17.53
2017-08-16T08:59:24.055Z,17.66
2017-08-16T09:00:34.013Z,17.6
2017-08-16T09:01:43.971Z,17.65
2017-08-16T09:02:53.933Z,17.65
2017-08-16T09:04:03.890Z,17.65
2017-08-16T09:05:14.166Z,17.69
2017-08-16T09:06:24.128Z,17.69
2017-08-16T09:07:34.087Z,17.73
2017-08-16T09:08:44.056Z,17.68
2017-08-16T09:09:54.019Z,17.78
2017-08-16T09:11:03.980Z,17.78
2017-08-16T09:12:13.941Z,17.87
2017-08-16T09:13:23.902Z,17.86
2017-08-16T09:14:34.206Z,17.8
2017-08-16T09:15:43.540Z,17.94
2017-08-16T09:16:53.185Z,17.84
2017-08-16T09:18:03.146Z,17.8
2017-08-16T09:19:13.115Z,17.88
2017-08-16T09:20:23.388Z,17.94
2017-08-16T09:21:33.344Z,17.84
2017-08-16T09:22:43.618Z,17.88
2017-08-16T09:23:53.896Z,17.91
2017-08-16T09:25:03.856Z,17.91
2017-08-16T09:26:13.830Z,18
2017-08-16T09:27:23.796Z,18.02
2017-08-16T09:28:34.076Z,18
2017-08-16T09:29:44.350Z,17.98
2017-08-16T09:30:54.624Z,18.05
2017-08-16T09:32:04.899Z,17.97
2017-08-16T09:33:13.917Z,17.98
2017-08-16T09:34:24.203Z,18.08
2017-08-16T09:35:34.477Z,18.08
2017-08-16T09:36:44.750Z,18.09
2017-08-16T09:37:55.024Z,18.12
2017-08-16T09:39:04.984Z,18.19
2017-08-16T09:40:14.632Z,18.15
2017-08-16T09:41:24.598Z,18.16
2017-08-16T09:42:34.882Z,18.15
2017-08-16T09:43:45.193Z,18.28
2017-08-16T09:44:55.323Z,18.27
2017-08-16T09:46:05.599Z,18.45
2017-08-16T09:47:15.252Z,18.31
2017-08-16T09:48:25.531Z,18.46
2017-08-16T09:49:35.490Z,18.37
2017-08-16T09:50:45.762Z,18.41
2017-08-16T09:51:56.045Z,18.41
2017-08-16T09:53:05.699Z,18.49
2017-08-16T09:54:15.662Z,18.49
2017-08-16T09:55:25.628Z,18.51
2017-08-16T09:56:35.923Z,18.64
2017-08-16T09:57:46.201Z,18.61
2017-08-16T09:58:56.479Z,18.64
2017-08-16T10:00:05.704Z,18.61
2017-08-16T10:01:15.981Z,18.63
2017-08-16T10:02:25.951Z,18.74
2017-08-16T10:03:35.913Z,18.76
2017-08-16T10:04:46.194Z,18.74
2017-08-16T10:05:56.467Z,18.86
2017-08-16T10:07:05.806Z,18.76
2017-08-16T10:08:15.776Z,18.82
2017-08-16T10:09:25.426Z,18.88
2017-08-16T10:10:35.074Z,18.88
2017-08-16T10:11:45.352Z,18.96
2017-08-16T10:12:55.314Z,18.89
2017-08-16T10:14:05.276Z,18.91
2017-08-16T10:15:15.278Z,19
2017-08-16T10:16:25.560Z,18.98
2017-08-16T10:17:35.538Z,19.05
2017-08-16T10:18:45.502Z,19.01
2017-08-16T10:19:55.460Z,19.07
2017-08-16T10:21:05.428Z,19
2017-08-16T10:22:15.704Z,19.12
2017-08-16T10:23:25.667Z,19.11
2017-08-16T10:24:35.629Z,19.12
2017-08-16T10:25:45.913Z,19.12
2017-08-16T10:26:56.192Z,19.11
2017-08-16T10:28:05.837Z,19.07
2017-08-16T10:29:15.797Z,19.26
2017-08-16T10:30:26.075Z,19.2
2017-08-16T10:31:36.350Z,19.34
2017-08-16T10:32:46.311Z,19.42
2017-08-16T10:33:55.961Z,19.47
2017-08-16T10:35:05.610Z,19.52
2017-08-16T10:36:15.887Z,19.55
2017-08-16T10:37:25.854Z,19.7
2017-08-16T10:38:35.504Z,19.79
2017-08-16T10:39:45.785Z,19.81
2017-08-16T10:40:56.060Z,19.87
2017-08-16T10:42:06.024Z,20.1
2017-08-16T10:43:15.681Z,20.08
2017-08-16T10:44:25.961Z,20.29
2017-08-16T10:45:35.608Z,20.15
2017-08-16T10:46:45.882Z,20.07
2017-08-16T10:47:56.157Z,20
2017-08-16T10:49:06.435Z,20.11
2017-08-16T10:50:16.400Z,20.27
2017-08-16T10:51:26.681Z,20.32
2017-08-16T10:52:36.646Z,20.52
2017-08-16T10:53:46.929Z,20.68
2017-08-16T10:54:57.203Z,20.8
2017-08-16T10:56:07.163Z,20.77
2017-08-16T10:57:17.443Z,20.83
2017-08-16T10:58:27.408Z,20.95
2017-08-16T10:59:37.686Z,21.04
2017-08-16T11:00:47.968Z,21
2017-08-16T11:01:57.932Z,21.03
2017-08-16T11:03:07.895Z,21.1
2017-08-16T11:04:17.862Z,20.9
2017-08-16T11:05:28.145Z,21.07
2017-08-16T11:06:38.114Z,21.08
2017-08-16T11:07:48.395Z,21.29
2017-08-16T11:08:58.672Z,21.28
2017-08-16T11:10:08.964Z,21.32
2017-08-16T11:11:18.622Z,21.37
2017-08-16T11:12:28.587Z,21.53
2017-08-16T11:13:38.867Z,21.6
2017-08-16T11:14:49.149Z,21.6
2017-08-16T11:15:59.435Z,21.69
2017-08-16T11:17:09.716Z,21.8
2017-08-16T11:18:19.050Z,21.94
2017-08-16T11:19:29.330Z,22.07
2017-08-16T11:20:39.300Z,22.14
2017-08-16T11:21:49.598Z,22.1
2017-08-16T11:22:59.885Z,22.1
2017-08-16T11:24:10.170Z,21.97
2017-08-16T11:25:19.821Z,22.03
2017-08-16T11:26:30.104Z,21.99
2017-08-16T11:27:40.387Z,22.04
2017-08-16T11:28:50.664Z,22.14
2017-08-16T11:30:00.941Z,22.71
2017-08-16T11:31:10.906Z,23.29
2017-08-16T11:32:21.188Z,23.89
2017-08-16T11:33:31.160Z,24.46
2017-08-16T11:34:40.499Z,24.85
2017-08-16T11:35:50.465Z,25.16
2017-08-16T11:37:00.431Z,25.19
2017-08-16T11:38:10.405Z,24.78
2017-08-16T11:39:19.746Z,25.19
2017-08-16T11:40:29.717Z,25.71
2017-08-16T11:41:40.006Z,25.46
2017-08-16T11:42:49.977Z,25.15
2017-08-16T11:44:00.262Z,26.19
2017-08-16T11:45:10.545Z,26.66
2017-08-16T11:46:20.520Z,26.7
2017-08-16T11:47:30.815Z,26.42
2017-08-16T11:48:41.108Z,26.89
2017-08-16T11:49:51.398Z,27.3
2017-08-16T11:51:01.100Z,27.19
2017-08-16T11:52:11.390Z,26.31
2017-08-16T11:53:21.791Z,25.8
2017-08-16T11:54:31.768Z,25.16
2017-08-16T11:55:41.119Z,24.96
2017-08-16T11:56:50.782Z,24.71
2017-08-16T11:58:00.753Z,24.94
2017-08-16T11:59:11.045Z,25.48
2017-08-16T12:00:21.027Z,25.89
2017-08-16T12:01:30.996Z,26.1
2017-08-16T12:02:40.973Z,26.45
2017-08-16T12:03:51.262Z,26.81
2017-08-16T12:05:01.232Z,27.38
2017-08-16T12:06:11.203Z,27.83
2017-08-16T12:07:21.493Z,27.23
2017-08-16T12:08:31.785Z,27.35
2017-08-16T12:09:41.453Z,27.58
2017-08-16T12:10:51.111Z,27.76
2017-08-16T12:12:01.402Z,27.86
2017-08-16T12:13:11.373Z,27.41
2017-08-16T12:14:21.682Z,27.83
2017-08-16T12:15:31.667Z,28
2017-08-16T12:16:41.957Z,28.33
2017-08-16T12:17:52.256Z,28.41
2017-08-16T12:19:02.552Z,28.82
2017-08-16T12:20:12.282Z,28.7
2017-08-16T12:21:22.260Z,28.55
2017-08-16T12:22:32.556Z,28.71
2017-08-16T12:23:42.542Z,28.65
2017-08-16T12:24:52.521Z,28.33
2017-08-16T12:26:02.821Z,28.68
2017-08-16T12:27:12.481Z,28.92
2017-08-16T12:28:21.852Z,29.35
2017-08-16T12:29:32.159Z,29.52
2017-08-16T12:30:41.823Z,28.7
2017-08-16T12:31:52.115Z,28.27
2017-08-16T12:33:02.404Z,28.57
2017-08-16T12:34:12.383Z,28.87
2017-08-16T12:35:22.370Z,28.6
2017-08-16T12:36:32.661Z,27.3
2017-08-16T12:37:42.651Z,27.55
2017-08-16T12:38:52.631Z,28.12
2017-08-16T12:40:02.608Z,28.06
2017-08-16T12:41:12.596Z,28.45
2017-08-16T12:42:21.633Z,28.55
2017-08-16T12:43:31.926Z,28.75
2017-08-16T12:44:41.907Z,29.22
2017-08-16T12:45:52.205Z,28.86
2017-08-16T12:47:02.197Z,28.64
2017-08-16T12:48:12.177Z,28.9
2017-08-16T12:49:22.502Z,28.87
2017-08-16T12:50:32.801Z,28.67
2017-08-16T12:51:43.093Z,29.15
2017-08-16T12:52:53.076Z,29.57
2017-08-16T12:54:03.395Z,29.95
2017-08-16T12:55:13.373Z,30.31
2017-08-16T12:56:23.359Z,30.58
2017-08-16T12:57:33.338Z,30.83
2017-08-16T12:58:43.640Z,30.91
2017-08-16T12:59:53.929Z,31.17
2017-08-16T13:01:03.592Z,31.44
2017-08-16T13:02:12.939Z,31.74
2017-08-16T13:03:22.603Z,32.07
2017-08-16T13:04:32.901Z,32.17
2017-08-16T13:05:42.878Z,32.02
2017-08-16T13:06:52.868Z,31.77
2017-08-16T13:08:03.165Z,31.29
2017-08-16T13:09:13.147Z,30.51
2017-08-16T13:10:23.439Z,30.06
2017-08-16T13:11:33.102Z,30.16
2017-08-16T13:12:43.391Z,29.58
2017-08-16T13:13:53.683Z,28.96
2017-08-16T13:15:03.982Z,28.47
2017-08-16T13:16:13.988Z,28.18
2017-08-16T13:17:24.281Z,27.44
2017-08-16T13:18:34.569Z,27.03
2017-08-16T13:19:44.546Z,26.51
2017-08-16T13:20:54.832Z,25.98
2017-08-16T13:22:04.803Z,25.48
2017-08-16T13:23:15.096Z,25.25
2017-08-16T13:24:25.067Z,25.4
2017-08-16T13:25:35.041Z,25.01
2017-08-16T13:26:45.009Z,24.71
2017-08-16T13:27:55.296Z,24.5
2017-08-16T13:29:05.266Z,24.93
2017-08-16T13:30:15.241Z,25.44
2017-08-16T13:31:25.526Z,25.99
2017-08-16T13:32:35.212Z,26.67
2017-08-16T13:33:45.185Z,27.25
2017-08-16T13:34:55.153Z,27.55
2017-08-16T13:36:05.123Z,28
2017-08-16T13:37:15.410Z,28.46
2017-08-16T13:38:25.385Z,29.09
2017-08-16T13:39:35.677Z,29.67
2017-08-16T13:40:45.966Z,29.89
2017-08-16T13:41:55.937Z,30.27
2017-08-16T13:43:06.227Z,30.63
2017-08-16T13:44:16.515Z,30.96
2017-08-16T13:45:26.813Z,30.76
2017-08-16T13:46:37.104Z,31.08
2017-08-16T13:47:47.399Z,31.47
2017-08-16T13:48:57.690Z,31.63
2017-08-16T13:50:07.353Z,31.81
2017-08-16T13:51:17.336Z,32.15
2017-08-16T13:52:27.640Z,32.11
2017-08-16T13:53:37.614Z,32.02
2017-08-16T13:54:47.590Z,31.85
2017-08-16T13:55:57.565Z,31.73
2017-08-16T13:57:07.544Z,31.95
2017-08-16T13:58:17.206Z,32.12
2017-08-16T13:59:27.494Z,32.41
2017-08-16T14:00:37.159Z,32.19
2017-08-16T14:01:47.450Z,31.87
2017-08-16T14:02:57.738Z,31.74
2017-08-16T14:04:08.026Z,32.17
2017-08-16T14:05:18.322Z,32.45
2017-08-16T14:06:28.001Z,32.64
2017-08-16T14:07:37.981Z,32.9
2017-08-16T14:08:47.955Z,32.67
2017-08-16T14:09:58.245Z,32.57
2017-08-16T14:11:08.219Z,32.61
2017-08-16T14:12:18.198Z,32.75
2017-08-16T14:13:28.488Z,32.94
2017-08-16T14:14:38.786Z,32.97
2017-08-16T14:15:48.448Z,32.79
2017-08-16T14:16:58.741Z,32.9
2017-08-16T14:18:09.034Z,32.38
2017-08-16T14:19:19.328Z,32.05
2017-08-16T14:20:29.617Z,31.78
2017-08-16T14:21:39.907Z,31.73
2017-08-16T14:22:49.885Z,31.89
2017-08-16T14:24:00.176Z,32.15
2017-08-16T14:25:10.481Z,32.48
2017-08-16T14:26:20.771Z,32.59
2017-08-16T14:27:30.750Z,32.59
2017-08-16T14:28:40.725Z,32.59
2017-08-16T14:29:51.020Z,32.12
2017-08-16T14:31:01.310Z,32.41
2017-08-16T14:32:11.631Z,32.46
2017-08-16T14:33:21.293Z,32.82
2017-08-16T14:34:30.952Z,33.15
2017-08-16T14:35:41.246Z,33.32
2017-08-16T14:36:51.217Z,33.33
2017-08-16T14:38:01.196Z,32.97
2017-08-16T14:39:11.483Z,32.88
2017-08-16T14:40:20.830Z,32.49
2017-08-16T14:41:31.132Z,31.87
2017-08-16T14:42:41.430Z,31.79
2017-08-16T14:43:51.721Z,31.78
2017-08-16T14:45:02.010Z,31.11
2017-08-16T14:46:11.986Z,30.39
2017-08-16T14:47:21.964Z,29.64
2017-08-16T14:48:31.623Z,29.32
2017-08-16T14:49:41.909Z,28.7
2017-08-16T14:50:52.200Z,28.2
2017-08-16T14:52:02.491Z,28.46
2017-08-16T14:53:12.466Z,28.72
2017-08-16T14:54:22.379Z,29.22
2017-08-16T14:55:32.351Z,29.55
2017-08-16T14:56:42.327Z,29.79
2017-08-16T14:57:52.613Z,29.39
2017-08-16T14:59:02.589Z,29.13
2017-08-16T15:00:12.881Z,28.93
2017-08-16T15:01:22.855Z,28.74
2017-08-16T15:02:32.826Z,28.89
2017-08-16T15:03:42.806Z,28.96
2017-08-16T15:04:53.097Z,28.94
2017-08-16T15:06:03.387Z,29.25